createdAt,value
2023-01-30T00:01:20.040Z,49.92
2023-01-30T00:03:47.836Z,49.91
2023-01-30T00:06:16.152Z,50.00
2023-01-30T00:08:44.458Z,49.79
2023-01-30T00:11:15.359Z,49.60
2023-01-30T00:13:43.796Z,50.07
2023-01-30T00:16:11.968Z,50.25
2023-01-30T00:18:41.001Z,49.94
2023-01-30T00:21:12.702Z,49.83
2023-01-30T00:23:40.765Z,49.91
2023-01-30T00:26:09.738Z,49.96
2023-01-30T00:28:39.735Z,49.55
2023-01-30T00:31:07.794Z,50.00
2023-01-30T00:33:37.522Z,49.56
2023-01-30T00:36:05.667Z,49.68
2023-01-30T00:38:33.401Z,49.69
2023-01-30T00:41:01.112Z,49.29
2023-01-30T00:43:46.972Z,49.42
2023-01-30T00:46:50.295Z,49.69
2023-01-30T00:49:18.356Z,49.77
2023-01-30T00:51:46.136Z,49.44
2023-01-30T00:54:14.221Z,50.06
2023-01-30T00:56:41.715Z,49.98
2023-01-30T00:59:09.227Z,49.83
2023-01-30T01:01:37.810Z,50.38
2023-01-30T01:04:07.507Z,50.47
2023-01-30T01:06:35.181Z,50.01
2023-01-30T01:09:03.940Z,50.46
2023-01-30T01:11:31.604Z,50.67
2023-01-30T01:14:01.670Z,49.94
2023-01-30T01:16:31.931Z,50.02
2023-01-30T01:19:00.406Z,50.69
2023-01-30T01:21:28.010Z,50.27
2023-01-30T01:23:59.440Z,50.83
2023-01-30T01:26:27.567Z,50.23
2023-01-30T01:28:59.165Z,50.29
2023-01-30T01:31:26.965Z,50.14
2023-01-30T01:33:57.086Z,50.48
2023-01-30T01:36:52.270Z,50.59
2023-01-30T01:39:13.922Z,50.19
2023-01-30T01:41:42.717Z,50.60
2023-01-30T01:44:13.562Z,50.07
2023-01-30T01:46:57.398Z,50.42
2023-01-30T01:49:36.735Z,50.38
2023-01-30T01:52:13.150Z,50.43
2023-01-30T01:54:59.220Z,51.08
2023-01-30T01:57:35.052Z,51.67
2023-01-30T02:00:12.563Z,51.27
2023-01-30T02:02:52.570Z,51.70
2023-01-30T02:05:21.013Z,51.63
2023-01-30T02:08:08.135Z,51.46
2023-01-30T02:11:32.248Z,52.06
2023-01-30T02:14:02.243Z,52.29
2023-01-30T02:16:29.747Z,51.81
2023-01-30T02:18:57.334Z,52.34
2023-01-30T02:21:47.522Z,52.23
2023-01-30T02:25:18.792Z,52.16
2023-01-30T02:28:29.600Z,52.17
2023-01-30T02:31:32.763Z,52.05
2023-01-30T02:34:53.161Z,52.33
2023-01-30T02:38:09.265Z,52.55
2023-01-30T02:41:00.786Z,52.25
2023-01-30T02:44:01.239Z,53.04
2023-01-30T02:46:51.244Z,52.76
2023-01-30T02:49:36.679Z,52.65
2023-01-30T02:52:11.405Z,52.58
2023-01-30T02:54:38.947Z,52.26
2023-01-30T02:57:36.529Z,52.45
2023-01-30T03:00:06.177Z,51.78
2023-01-30T03:03:12.821Z,51.96
2023-01-30T03:06:06.046Z,51.71
2023-01-30T03:09:12.369Z,51.65
2023-01-30T03:12:03.080Z,51.35
2023-01-30T03:14:49.524Z,51.03
2023-01-30T03:17:21.082Z,51.26
2023-01-30T03:19:48.951Z,50.97
2023-01-30T03:22:17.334Z,51.15
2023-01-30T03:24:45.075Z,51.11
2023-01-30T03:27:13.423Z,50.91
2023-01-30T03:29:41.084Z,50.80
2023-01-30T03:32:08.669Z,50.39
2023-01-30T03:34:36.214Z,50.39
2023-01-30T03:37:05.599Z,50.03
2023-01-30T03:39:36.583Z,50.02
2023-01-30T03:42:06.335Z,49.95
2023-01-30T03:44:33.922Z,49.65
2023-01-30T03:47:01.927Z,49.60
2023-01-30T03:49:29.449Z,49.86
2023-01-30T03:51:58.284Z,49.66
2023-01-30T03:54:25.872Z,49.63
2023-01-30T03:56:55.353Z,49.40
2023-01-30T03:59:23.747Z,49.59
2023-01-30T04:01:59.060Z,49.10
2023-01-30T04:04:26.593Z,49.15
2023-01-30T04:06:54.277Z,49.18
2023-01-30T04:09:22.097Z,49.29
2023-01-30T04:11:52.647Z,49.26
2023-01-30T04:14:20.518Z,49.10
2023-01-30T04:17:06.469Z,49.03
2023-01-30T04:19:49.008Z,48.78
2023-01-30T04:22:16.563Z,49.07
2023-01-30T04:24:44.325Z,48.94
2023-01-30T04:27:12.033Z,49.06
2023-01-30T04:29:51.528Z,48.97
2023-01-30T04:32:19.854Z,48.87
2023-01-30T04:34:47.424Z,48.99
2023-01-30T04:37:14.968Z,49.13
2023-01-30T04:39:43.389Z,48.78
2023-01-30T04:42:11.235Z,48.69
2023-01-30T04:44:48.862Z,48.46
2023-01-30T04:47:19.863Z,48.75
2023-01-30T04:49:47.408Z,48.75
2023-01-30T04:52:16.537Z,48.72
2023-01-30T04:54:44.143Z,48.80
2023-01-30T04:57:11.673Z,48.62
2023-01-30T04:59:39.294Z,48.41
2023-01-30T05:02:10.547Z,48.23
2023-01-30T05:04:38.132Z,48.57
2023-01-30T05:07:05.644Z,48.51
2023-01-30T05:09:33.172Z,48.29
2023-01-30T05:12:00.692Z,48.61
2023-01-30T05:14:28.187Z,48.38
2023-01-30T05:16:55.733Z,48.22
2023-01-30T05:19:23.286Z,48.43
2023-01-30T05:21:50.791Z,48.37
2023-01-30T05:24:18.277Z,48.93
2023-01-30T05:26:45.813Z,48.48
2023-01-30T05:29:13.414Z,48.44
2023-01-30T05:31:40.927Z,48.64
2023-01-30T05:34:12.629Z,48.30
2023-01-30T05:36:40.133Z,48.45
2023-01-30T05:39:07.634Z,48.40
2023-01-30T05:41:35.124Z,48.23
2023-01-30T05:44:02.644Z,48.51
2023-01-30T05:46:30.209Z,48.32
2023-01-30T05:48:57.829Z,48.56
2023-01-30T05:51:26.997Z,48.70
2023-01-30T05:53:54.528Z,48.45
2023-01-30T05:56:23.600Z,48.25
2023-01-30T05:58:56.361Z,48.47
2023-01-30T06:01:24.703Z,48.15
2023-01-30T06:03:53.116Z,48.21
2023-01-30T06:06:21.651Z,48.35
2023-01-30T06:08:52.949Z,48.34
2023-01-30T06:11:20.531Z,48.06
2023-01-30T06:13:48.187Z,48.64
2023-01-30T06:16:18.359Z,48.22
2023-01-30T06:18:47.150Z,48.33
2023-01-30T06:21:15.831Z,48.03
2023-01-30T06:23:43.700Z,48.47
2023-01-30T06:26:11.485Z,48.49
2023-01-30T06:28:39.126Z,48.35
2023-01-30T06:31:08.460Z,48.53
2023-01-30T06:33:36.177Z,48.26
2023-01-30T06:36:03.950Z,48.22
2023-01-30T06:38:31.733Z,48.05
2023-01-30T06:40:59.484Z,48.24
2023-01-30T06:43:27.125Z,48.25
2023-01-30T06:45:54.652Z,48.87
2023-01-30T06:48:22.304Z,48.28
2023-01-30T06:50:49.811Z,48.31
2023-01-30T06:53:17.313Z,48.55
2023-01-30T06:55:44.888Z,48.22
2023-01-30T06:58:14.783Z,48.25
2023-01-30T07:00:43.467Z,48.57
2023-01-30T07:03:16.621Z,48.09
2023-01-30T07:05:46.510Z,48.29
2023-01-30T07:08:15.715Z,48.57
2023-01-30T07:10:44.576Z,47.92
2023-01-30T07:13:12.683Z,48.06
2023-01-30T07:15:40.258Z,48.27
2023-01-30T07:18:08.109Z,48.20
2023-01-30T07:20:35.626Z,48.26
2023-01-30T07:23:03.341Z,48.32
2023-01-30T07:25:31.114Z,48.48
2023-01-30T07:28:02.194Z,48.71
2023-01-30T07:30:32.589Z,48.74
2023-01-30T07:33:00.863Z,48.96
2023-01-30T07:35:34.784Z,48.98
2023-01-30T07:38:02.370Z,48.81
2023-01-30T07:40:29.937Z,48.32
2023-01-30T07:43:11.451Z,48.88
2023-01-30T07:45:48.686Z,48.99
2023-01-30T07:48:19.070Z,48.67
2023-01-30T07:50:46.910Z,48.41
2023-01-30T07:53:18.645Z,48.65
2023-01-30T07:55:46.214Z,49.00
2023-01-30T07:58:15.455Z,48.61
2023-01-30T08:00:44.049Z,49.13
2023-01-30T08:03:16.797Z,48.97
2023-01-30T08:05:46.942Z,49.02
2023-01-30T08:08:14.933Z,49.02
2023-01-30T08:10:43.245Z,49.21
2023-01-30T08:13:10.756Z,49.73
2023-01-30T08:15:38.287Z,49.63
2023-01-30T08:18:08.905Z,49.51
2023-01-30T08:20:36.966Z,49.66
2023-01-30T08:23:04.972Z,49.59
2023-01-30T08:25:32.570Z,50.02
2023-01-30T08:28:00.437Z,49.54
2023-01-30T08:30:28.855Z,49.50
2023-01-30T08:32:57.806Z,50.61
2023-01-30T08:35:25.335Z,49.74
2023-01-30T08:37:52.876Z,49.86
2023-01-30T08:40:20.860Z,50.22
2023-01-30T08:42:48.497Z,50.55
2023-01-30T08:45:16.075Z,50.14
2023-01-30T08:47:43.574Z,50.78
2023-01-30T08:50:11.528Z,50.20
2023-01-30T08:52:39.021Z,50.50
2023-01-30T08:55:06.993Z,50.83
2023-01-30T08:57:34.552Z,50.36
2023-01-30T09:00:02.968Z,50.91
2023-01-30T09:02:30.757Z,51.10
2023-01-30T09:04:58.365Z,51.22
2023-01-30T09:07:28.286Z,50.81
2023-01-30T09:09:55.952Z,51.03
2023-01-30T09:12:23.683Z,50.94
2023-01-30T09:14:55.510Z,51.18
2023-01-30T09:17:23.125Z,50.90
2023-01-30T09:19:50.676Z,50.49
2023-01-30T09:22:18.243Z,51.14
2023-01-30T09:24:45.758Z,50.77
2023-01-30T09:27:13.269Z,50.45
2023-01-30T09:29:40.804Z,51.27
2023-01-30T09:32:08.352Z,51.47
2023-01-30T09:34:35.872Z,51.31
2023-01-30T09:37:05.162Z,50.88
2023-01-30T09:39:32.787Z,51.06
2023-01-30T09:42:30.574Z,51.31
2023-01-30T09:45:32.150Z,50.74
2023-01-30T09:48:18.320Z,50.63
2023-01-30T09:50:55.918Z,51.32
2023-01-30T09:53:59.107Z,50.70
2023-01-30T09:56:27.748Z,51.37
2023-01-30T09:58:59.316Z,51.49
2023-01-30T10:01:58.682Z,51.54
2023-01-30T10:04:59.990Z,51.95
2023-01-30T10:07:47.294Z,51.85
2023-01-30T10:10:34.981Z,52.12
2023-01-30T10:13:15.808Z,51.86
2023-01-30T10:16:13.048Z,51.40
2023-01-30T10:19:07.382Z,53.01
2023-01-30T10:21:55.393Z,52.44
2023-01-30T10:24:48.241Z,54.56
2023-01-30T10:27:18.063Z,53.96
2023-01-30T10:29:52.883Z,54.55
2023-01-30T10:32:41.959Z,54.86
2023-01-30T10:35:42.162Z,55.14
2023-01-30T10:38:26.962Z,54.13
2023-01-30T10:41:28.147Z,54.65
2023-01-30T10:44:14.094Z,55.24
2023-01-30T10:46:56.793Z,55.40
2023-01-30T10:49:52.334Z,55.27
2023-01-30T10:52:44.745Z,54.75
2023-01-30T10:55:39.639Z,54.89
2023-01-30T10:58:47.834Z,54.94
2023-01-30T11:01:30.305Z,54.27
2023-01-30T11:04:04.492Z,54.46
2023-01-30T11:06:34.770Z,54.54
2023-01-30T11:09:03.931Z,54.83
2023-01-30T11:11:43.290Z,54.44
2023-01-30T11:14:12.627Z,54.60
2023-01-30T11:16:53.871Z,55.20
2023-01-30T11:19:32.880Z,55.14
2023-01-30T11:22:06.171Z,54.55
2023-01-30T11:24:42.983Z,54.63
2023-01-30T11:27:28.678Z,55.27
2023-01-30T11:30:20.834Z,55.89
2023-01-30T11:32:50.556Z,55.37
2023-01-30T11:35:29.541Z,55.01
2023-01-30T11:38:28.176Z,55.83
2023-01-30T11:41:09.483Z,56.38
2023-01-30T11:43:39.876Z,57.14
2023-01-30T11:46:16.133Z,56.35
2023-01-30T11:49:04.180Z,56.38
2023-01-30T11:51:51.903Z,55.98
2023-01-30T11:54:31.014Z,55.61
2023-01-30T11:57:01.790Z,56.27
2023-01-30T11:59:50.830Z,56.21
2023-01-30T12:02:38.072Z,56.83
2023-01-30T12:05:36.709Z,56.08
2023-01-30T12:08:40.582Z,55.80
2023-01-30T12:11:28.301Z,56.69
2023-01-30T12:14:26.243Z,56.45
2023-01-30T12:17:19.530Z,57.39
2023-01-30T12:20:45.573Z,57.21
2023-01-30T12:23:36.639Z,56.41
2023-01-30T12:26:33.827Z,55.87
2023-01-30T12:29:30.781Z,56.46
2023-01-30T12:32:19.334Z,56.90
2023-01-30T12:34:48.265Z,55.28
2023-01-30T12:37:45.061Z,55.86
2023-01-30T12:40:36.630Z,57.09
2023-01-30T12:43:45.256Z,57.23
2023-01-30T12:46:47.967Z,57.12
2023-01-30T12:49:50.219Z,57.33
2023-01-30T12:52:29.178Z,58.48
2023-01-30T12:55:35.813Z,58.03
2023-01-30T12:58:38.829Z,58.76
2023-01-30T13:01:31.576Z,57.38
2023-01-30T13:04:56.741Z,58.15
2023-01-30T13:07:57.100Z,57.73
2023-01-30T13:10:47.160Z,56.09
2023-01-30T13:13:42.924Z,56.37
2023-01-30T13:16:31.050Z,56.92
2023-01-30T13:19:51.269Z,55.88
2023-01-30T13:22:48.828Z,56.09
2023-01-30T13:25:46.353Z,55.29
2023-01-30T13:28:21.659Z,55.53
2023-01-30T13:30:52.204Z,57.36
2023-01-30T13:33:37.971Z,56.65
2023-01-30T13:36:26.142Z,55.66
2023-01-30T13:39:32.887Z,55.61
2023-01-30T13:42:02.912Z,55.94
2023-01-30T13:44:35.788Z,56.04
2023-01-30T13:47:21.782Z,55.81
2023-01-30T13:50:26.793Z,55.79
2023-01-30T13:53:18.649Z,56.59
2023-01-30T13:56:01.974Z,56.76
2023-01-30T13:58:53.715Z,56.93
2023-01-30T14:01:23.042Z,56.45
2023-01-30T14:03:50.666Z,56.94
2023-01-30T14:06:38.812Z,57.10
2023-01-30T14:09:24.127Z,56.90
2023-01-30T14:12:00.458Z,57.92
2023-01-30T14:14:40.567Z,57.05
2023-01-30T14:17:12.818Z,56.85
2023-01-30T14:20:21.300Z,57.65
2023-01-30T14:23:24.405Z,56.57
2023-01-30T14:25:56.429Z,56.65
2023-01-30T14:28:24.037Z,56.92
2023-01-30T14:31:02.175Z,56.23
2023-01-30T14:33:36.098Z,56.13
2023-01-30T14:36:03.484Z,56.08
2023-01-30T14:38:33.406Z,56.11
2023-01-30T14:41:00.824Z,56.00
2023-01-30T14:43:43.636Z,56.43
2023-01-30T14:46:20.174Z,55.92
2023-01-30T14:49:19.400Z,56.08
2023-01-30T14:51:48.294Z,55.81
2023-01-30T14:54:15.718Z,56.43
2023-01-30T14:57:03.745Z,56.28
2023-01-30T15:00:02.680Z,56.81
2023-01-30T15:02:44.114Z,57.09
2023-01-30T15:05:18.275Z,56.74
2023-01-30T15:07:59.326Z,57.32
2023-01-30T15:10:43.051Z,58.10
2023-01-30T15:13:34.570Z,57.21
2023-01-30T15:16:23.596Z,58.18
2023-01-30T15:19:34.542Z,58.00
2023-01-30T15:22:53.094Z,58.13
2023-01-30T15:25:40.663Z,57.92
2023-01-30T15:28:33.262Z,57.20
2023-01-30T15:31:14.236Z,58.61
2023-01-30T15:33:51.180Z,58.39
2023-01-30T15:36:25.006Z,57.90
2023-01-30T15:39:17.886Z,56.86
2023-01-30T15:41:45.378Z,56.56
2023-01-30T15:44:39.342Z,56.92
2023-01-30T15:47:22.232Z,57.94
2023-01-30T15:49:59.963Z,57.24
2023-01-30T15:52:46.308Z,56.55
2023-01-30T15:55:36.792Z,57.46
2023-01-30T15:58:16.825Z,57.10
2023-01-30T16:00:52.029Z,56.88
2023-01-30T16:03:25.370Z,57.08
2023-01-30T16:05:55.859Z,58.33
2023-01-30T16:08:32.375Z,57.68
2023-01-30T16:11:00.779Z,57.44
2023-01-30T16:13:29.592Z,56.91
2023-01-30T16:16:12.687Z,56.80
2023-01-30T16:18:51.414Z,56.23
2023-01-30T16:21:40.102Z,56.40
2023-01-30T16:24:22.516Z,56.20
2023-01-30T16:26:56.158Z,55.90
2023-01-30T16:29:27.410Z,56.45
2023-01-30T16:31:55.823Z,56.62
2023-01-30T16:34:36.608Z,56.63
2023-01-30T16:37:26.699Z,56.73
2023-01-30T16:40:33.012Z,57.41
2023-01-30T16:43:14.767Z,56.40
2023-01-30T16:45:54.195Z,56.33
2023-01-30T16:48:35.208Z,56.44
2023-01-30T16:51:02.601Z,55.79
2023-01-30T16:53:31.965Z,56.33
2023-01-30T16:56:10.759Z,55.98
2023-01-30T16:58:38.823Z,57.16
2023-01-30T17:01:08.855Z,56.76
2023-01-30T17:03:43.255Z,56.85
2023-01-30T17:06:22.537Z,55.66
2023-01-30T17:08:57.704Z,56.09
2023-01-30T17:11:32.492Z,55.95
2023-01-30T17:14:32.819Z,56.14
2023-01-30T17:17:07.442Z,56.25
2023-01-30T17:19:35.918Z,56.15
2023-01-30T17:22:08.024Z,56.04
2023-01-30T17:24:36.263Z,56.99
2023-01-30T17:27:04.746Z,56.31
2023-01-30T17:29:42.581Z,56.29
2023-01-30T17:32:13.568Z,56.20
2023-01-30T17:34:41.487Z,56.83
2023-01-30T17:37:24.035Z,56.93
2023-01-30T17:39:51.537Z,57.35
2023-01-30T17:42:21.044Z,57.44
2023-01-30T17:44:48.912Z,57.96
2023-01-30T17:47:16.883Z,58.37
2023-01-30T17:49:44.979Z,58.13
2023-01-30T17:52:14.141Z,57.38
2023-01-30T17:54:41.770Z,57.46
2023-01-30T17:57:15.671Z,57.83
2023-01-30T17:59:43.597Z,58.31
2023-01-30T18:02:11.121Z,58.23
2023-01-30T18:04:40.029Z,58.86
2023-01-30T18:07:12.612Z,58.49
2023-01-30T18:09:40.119Z,58.45
2023-01-30T18:12:32.749Z,58.91
2023-01-30T18:15:00.274Z,58.29
2023-01-30T18:17:28.452Z,58.62
2023-01-30T18:19:56.298Z,59.24
2023-01-30T18:22:24.203Z,58.86
2023-01-30T18:24:51.723Z,59.51
2023-01-30T18:27:19.294Z,59.81
2023-01-30T18:29:46.842Z,60.19
2023-01-30T18:32:14.397Z,59.79
2023-01-30T18:34:42.011Z,60.85
2023-01-30T18:37:09.634Z,59.66
2023-01-30T18:39:38.322Z,59.54
2023-01-30T18:42:06.396Z,59.43
2023-01-30T18:44:35.602Z,61.64
2023-01-30T18:47:03.103Z,60.65
2023-01-30T18:49:30.743Z,60.52
2023-01-30T18:51:58.230Z,59.84
2023-01-30T18:54:25.782Z,59.49
2023-01-30T18:56:53.266Z,58.98
2023-01-30T18:59:20.857Z,60.75
2023-01-30T19:01:48.437Z,60.92
2023-01-30T19:04:16.024Z,59.85
2023-01-30T19:06:44.105Z,60.08
2023-01-30T19:09:16.363Z,60.03
2023-01-30T19:12:02.456Z,60.16
2023-01-30T19:14:30.084Z,60.02
2023-01-30T19:16:57.598Z,59.67
2023-01-30T19:19:25.173Z,60.36
2023-01-30T19:21:52.777Z,58.87
2023-01-30T19:24:20.290Z,60.02
2023-01-30T19:26:48.394Z,60.52
2023-01-30T19:29:18.158Z,59.88
2023-01-30T19:31:47.291Z,59.22
2023-01-30T19:34:15.033Z,58.36
2023-01-30T19:36:42.591Z,59.62
2023-01-30T19:39:10.894Z,60.38
2023-01-30T19:41:38.765Z,59.16
2023-01-30T19:44:08.457Z,59.53
2023-01-30T19:46:36.282Z,58.97
2023-01-30T19:49:05.808Z,59.34
2023-01-30T19:51:35.125Z,59.24
2023-01-30T19:54:09.595Z,58.81
2023-01-30T19:56:40.794Z,58.97
2023-01-30T19:59:09.297Z,60.61
2023-01-30T20:01:39.824Z,59.11
2023-01-30T20:04:07.557Z,59.24
2023-01-30T20:06:37.372Z,58.90
2023-01-30T20:09:08.323Z,59.00
2023-01-30T20:11:38.015Z,59.47
2023-01-30T20:14:06.911Z,60.03
2023-01-30T20:16:35.900Z,58.82
2023-01-30T20:19:12.839Z,58.74
2023-01-30T20:21:40.364Z,58.31
2023-01-30T20:24:11.654Z,58.63
2023-01-30T20:26:39.796Z,58.32
2023-01-30T20:29:09.389Z,57.92
2023-01-30T20:31:39.035Z,58.13
2023-01-30T20:34:11.187Z,58.47
2023-01-30T20:36:38.703Z,58.48
2023-01-30T20:39:07.640Z,58.08
2023-01-30T20:41:37.527Z,58.36
2023-01-30T20:44:08.679Z,57.78
2023-01-30T20:46:41.439Z,58.03
2023-01-30T20:49:18.589Z,57.90
2023-01-30T20:51:50.085Z,57.66
2023-01-30T20:54:20.199Z,57.30
2023-01-30T20:56:51.556Z,57.26
2023-01-30T20:59:27.204Z,57.32
2023-01-30T21:01:55.164Z,57.56
2023-01-30T21:04:24.824Z,57.34
2023-01-30T21:06:52.661Z,56.97
2023-01-30T21:09:22.954Z,57.47
2023-01-30T21:11:52.941Z,57.97
2023-01-30T21:14:20.693Z,58.15
2023-01-30T21:16:48.830Z,58.59
2023-01-30T21:19:17.635Z,57.80
2023-01-30T21:22:09.179Z,57.65
2023-01-30T21:24:39.268Z,57.52
2023-01-30T21:27:07.002Z,57.98
2023-01-30T21:29:34.600Z,57.86
2023-01-30T21:32:02.176Z,57.74
2023-01-30T21:34:29.789Z,57.01
2023-01-30T21:37:15.858Z,56.73
2023-01-30T21:40:02.255Z,57.32
2023-01-30T21:42:48.790Z,57.55
2023-01-30T21:45:16.624Z,57.26
2023-01-30T21:47:44.222Z,56.39
2023-01-30T21:50:11.930Z,56.87
2023-01-30T21:52:39.696Z,57.13
2023-01-30T21:55:08.185Z,57.25
2023-01-30T21:57:35.711Z,56.31
2023-01-30T22:00:03.911Z,56.41
2023-01-30T22:02:32.649Z,56.43
2023-01-30T22:05:00.170Z,56.43
2023-01-30T22:07:27.696Z,56.51
2023-01-30T22:09:55.608Z,56.86
2023-01-30T22:12:23.507Z,56.56
2023-01-30T22:14:51.032Z,56.68
2023-01-30T22:17:18.600Z,56.46
2023-01-30T22:19:46.325Z,56.39
2023-01-30T22:22:13.832Z,57.01
2023-01-30T22:24:41.348Z,56.10
2023-01-30T22:27:08.956Z,56.28
2023-01-30T22:29:36.472Z,55.84
2023-01-30T22:32:04.324Z,55.69
2023-01-30T22:34:33.151Z,55.67
2023-01-30T22:37:01.757Z,55.48
2023-01-30T22:39:29.279Z,55.52
2023-01-30T22:41:56.793Z,55.78
2023-01-30T22:44:24.277Z,56.01
2023-01-30T22:46:52.338Z,55.44
2023-01-30T22:49:19.959Z,55.48
2023-01-30T22:51:47.454Z,55.73
2023-01-30T22:54:16.199Z,55.57
2023-01-30T22:56:48.613Z,55.71
2023-01-30T22:59:16.873Z,55.27
2023-01-30T23:01:47.869Z,54.74
2023-01-30T23:04:19.512Z,55.18
2023-01-30T23:06:48.265Z,54.78
2023-01-30T23:09:19.935Z,54.61
2023-01-30T23:12:13.976Z,55.08
2023-01-30T23:14:42.762Z,54.68
2023-01-30T23:17:29.189Z,54.33
2023-01-30T23:19:56.751Z,54.58
2023-01-30T23:22:24.289Z,54.61
2023-01-30T23:24:51.881Z,54.32
2023-01-30T23:27:20.853Z,54.82
2023-01-30T23:29:48.443Z,54.98
2023-01-30T23:32:19.036Z,55.05
2023-01-30T23:34:47.797Z,54.30
2023-01-30T23:37:16.600Z,55.36
2023-01-30T23:39:45.148Z,55.21
2023-01-30T23:42:12.677Z,54.75
2023-01-30T23:44:40.404Z,54.82
2023-01-30T23:47:07.979Z,54.69
2023-01-30T23:49:35.551Z,55.02
2023-01-30T23:52:03.207Z,55.07
2023-01-30T23:54:30.766Z,54.42
2023-01-30T23:56:58.295Z,54.48
2023-01-30T23:59:25.821Z,54.36
